sensor_id;sensor_type;location;lat;lon;timestamp;P1;durP1;ratioP1;P2;durP2;ratioP2
40599;SDS011;26309;50.924;4.754;2023-05-07T00:00:45;9.20;;;6.65;;
40599;SDS011;26309;50.924;4.754;2023-05-07T00:03:11;8.02;;;5.60;;
40599;SDS011;26309;50.924;4.754;2023-05-07T00:05:39;10.85;;;5.80;;
40599;SDS011;26309;50.924;4.754;2023-05-07T00:08:04;8.95;;;5.00;;
40599;SDS011;26309;50.924;4.754;2023-05-07T00:10:30;11.50;;;5.05;;
40599;SDS011;26309;50.924;4.754;2023-05-07T00:12:56;8.48;;;5.05;;
40599;SDS011;26309;50.924;4.754;2023-05-07T00:15:22;7.18;;;4.72;;
40599;SDS011;26309;50.924;4.754;2023-05-07T00:17:48;11.73;;;5.10;;
40599;SDS011;26309;50.924;4.754;2023-05-07T00:20:14;8.43;;;5.40;;
40599;SDS011;26309;50.924;4.754;2023-05-07T00:22:39;8.52;;;5.07;;
40599;SDS011;26309;50.924;4.754;2023-05-07T00:25:05;7.85;;;4.80;;
40599;SDS011;26309;50.924;4.754;2023-05-07T00:27:32;8.57;;;5.18;;
40599;SDS011;26309;50.924;4.754;2023-05-07T00:29:58;7.40;;;4.82;;
40599;SDS011;26309;50.924;4.754;2023-05-07T00:32:23;6.03;;;4.95;;
40599;SDS011;26309;50.924;4.754;2023-05-07T00:34:49;7.70;;;5.13;;
40599;SDS011;26309;50.924;4.754;2023-05-07T00:37:16;12.23;;;5.30;;
40599;SDS011;26309;50.924;4.754;2023-05-07T00:39:42;10.23;;;4.97;;
40599;SDS011;26309;50.924;4.754;2023-05-07T00:42:07;7.13;;;4.43;;
40599;SDS011;26309;50.924;4.754;2023-05-07T00:44:33;7.93;;;4.60;;
40599;SDS011;26309;50.924;4.754;2023-05-07T00:47:00;7.50;;;4.45;;
40599;SDS011;26309;50.924;4.754;2023-05-07T00:49:38;8.55;;;5.15;;
40599;SDS011;26309;50.924;4.754;2023-05-07T00:52:07;6.47;;;4.78;;
40599;SDS011;26309;50.924;4.754;2023-05-07T00:54:37;8.07;;;4.88;;
40599;SDS011;26309;50.924;4.754;2023-05-07T00:57:05;9.32;;;4.93;;
40599;SDS011;26309;50.924;4.754;2023-05-07T00:59:32;8.80;;;4.60;;
40599;SDS011;26309;50.924;4.754;2023-05-07T01:01:58;11.15;;;5.28;;
40599;SDS011;26309;50.924;4.754;2023-05-07T01:04:24;8.25;;;5.78;;
40599;SDS011;26309;50.924;4.754;2023-05-07T01:06:51;8.13;;;6.03;;
40599;SDS011;26309;50.924;4.754;2023-05-07T01:09:19;8.00;;;6.28;;
40599;SDS011;26309;50.924;4.754;2023-05-07T01:11:46;12.30;;;7.50;;
40599;SDS011;26309;50.924;4.754;2023-05-07T01:14:14;15.55;;;8.88;;
40599;SDS011;26309;50.924;4.754;2023-05-07T01:16:39;11.60;;;7.28;;
40599;SDS011;26309;50.924;4.754;2023-05-07T01:19:07;14.43;;;6.50;;
40599;SDS011;26309;50.924;4.754;2023-05-07T01:21:35;10.43;;;6.30;;
40599;SDS011;26309;50.924;4.754;2023-05-07T01:24:03;11.15;;;6.13;;
40599;SDS011;26309;50.924;4.754;2023-05-07T01:26:30;11.65;;;6.45;;
40599;SDS011;26309;50.924;4.754;2023-05-07T01:28:56;13.02;;;7.20;;
40599;SDS011;26309;50.924;4.754;2023-05-07T01:31:21;10.57;;;6.70;;
40599;SDS011;26309;50.924;4.754;2023-05-07T01:33:49;7.45;;;6.50;;
40599;SDS011;26309;50.924;4.754;2023-05-07T01:36:17;13.52;;;7.25;;
40599;SDS011;26309;50.924;4.754;2023-05-07T01:38:45;11.02;;;7.65;;
40599;SDS011;26309;50.924;4.754;2023-05-07T01:41:11;12.50;;;8.10;;
40599;SDS011;26309;50.924;4.754;2023-05-07T01:43:38;10.52;;;7.10;;
40599;SDS011;26309;50.924;4.754;2023-05-07T01:46:06;11.55;;;7.45;;
40599;SDS011;26309;50.924;4.754;2023-05-07T01:48:35;9.93;;;7.03;;
40599;SDS011;26309;50.924;4.754;2023-05-07T01:51:01;9.45;;;8.35;;
40599;SDS011;26309;50.924;4.754;2023-05-07T01:53:28;13.73;;;8.18;;
40599;SDS011;26309;50.924;4.754;2023-05-07T01:55:54;10.00;;;7.47;;
40599;SDS011;26309;50.924;4.754;2023-05-07T01:58:19;8.63;;;6.68;;
40599;SDS011;26309;50.924;4.754;2023-05-07T02:00:45;10.50;;;5.95;;
40599;SDS011;26309;50.924;4.754;2023-05-07T02:03:11;12.13;;;6.40;;
40599;SDS011;26309;50.924;4.754;2023-05-07T02:05:37;10.57;;;6.65;;
40599;SDS011;26309;50.924;4.754;2023-05-07T02:08:03;8.88;;;7.22;;
40599;SDS011;26309;50.924;4.754;2023-05-07T02:10:29;8.95;;;7.97;;
40599;SDS011;26309;50.924;4.754;2023-05-07T02:12:55;11.27;;;8.45;;
40599;SDS011;26309;50.924;4.754;2023-05-07T02:15:21;13.20;;;9.25;;
40599;SDS011;26309;50.924;4.754;2023-05-07T02:18:05;10.02;;;9.00;;
40599;SDS011;26309;50.924;4.754;2023-05-07T02:20:32;9.63;;;8.25;;
40599;SDS011;26309;50.924;4.754;2023-05-07T02:22:58;13.25;;;9.30;;
40599;SDS011;26309;50.924;4.754;2023-05-07T02:25:25;13.18;;;9.70;;
40599;SDS011;26309;50.924;4.754;2023-05-07T02:27:54;14.73;;;9.57;;
40599;SDS011;26309;50.924;4.754;2023-05-07T02:30:20;15.30;;;8.93;;
40599;SDS011;26309;50.924;4.754;2023-05-07T02:32:50;14.32;;;9.30;;
40599;SDS011;26309;50.924;4.754;2023-05-07T02:35:15;15.27;;;9.70;;
40599;SDS011;26309;50.924;4.754;2023-05-07T02:37:41;12.10;;;10.07;;
40599;SDS011;26309;50.924;4.754;2023-05-07T02:40:07;12.95;;;10.88;;
40599;SDS011;26309;50.924;4.754;2023-05-07T02:42:34;14.88;;;10.40;;
40599;SDS011;26309;50.924;4.754;2023-05-07T02:45:00;16.30;;;11.00;;
40599;SDS011;26309;50.924;4.754;2023-05-07T02:47:26;14.65;;;12.73;;
40599;SDS011;26309;50.924;4.754;2023-05-07T02:49:55;15.77;;;14.07;;
40599;SDS011;26309;50.924;4.754;2023-05-07T02:52:21;16.80;;;14.70;;
40599;SDS011;26309;50.924;4.754;2023-05-07T02:54:47;21.33;;;15.95;;
40599;SDS011;26309;50.924;4.754;2023-05-07T02:57:13;19.85;;;15.10;;
40599;SDS011;26309;50.924;4.754;2023-05-07T02:59:39;19.77;;;15.02;;
40599;SDS011;26309;50.924;4.754;2023-05-07T03:02:05;15.93;;;14.23;;
40599;SDS011;26309;50.924;4.754;2023-05-07T03:04:31;15.00;;;13.40;;
40599;SDS011;26309;50.924;4.754;2023-05-07T03:06:57;15.35;;;13.75;;
40599;SDS011;26309;50.924;4.754;2023-05-07T03:09:23;13.98;;;12.50;;
40599;SDS011;26309;50.924;4.754;2023-05-07T03:11:49;16.05;;;13.35;;
40599;SDS011;26309;50.924;4.754;2023-05-07T03:14:15;17.73;;;14.02;;
40599;SDS011;26309;50.924;4.754;2023-05-07T03:16:40;15.27;;;13.68;;
40599;SDS011;26309;50.924;4.754;2023-05-07T03:19:09;17.15;;;15.32;;
40599;SDS011;26309;50.924;4.754;2023-05-07T03:21:35;18.27;;;15.65;;
40599;SDS011;26309;50.924;4.754;2023-05-07T03:24:01;15.35;;;13.75;;
40599;SDS011;26309;50.924;4.754;2023-05-07T03:26:27;16.70;;;15.00;;
40599;SDS011;26309;50.924;4.754;2023-05-07T03:28:53;17.73;;;15.55;;
40599;SDS011;26309;50.924;4.754;2023-05-07T03:31:18;19.02;;;15.95;;
40599;SDS011;26309;50.924;4.754;2023-05-07T03:33:54;17.48;;;15.38;;
40599;SDS011;26309;50.924;4.754;2023-05-07T03:36:21;17.00;;;13.55;;
40599;SDS011;26309;50.924;4.754;2023-05-07T03:38:48;17.02;;;13.90;;
40599;SDS011;26309;50.924;4.754;2023-05-07T03:41:15;17.40;;;15.50;;
40599;SDS011;26309;50.924;4.754;2023-05-07T03:43:41;17.17;;;15.00;;
40599;SDS011;26309;50.924;4.754;2023-05-07T03:46:07;17.73;;;14.60;;
40599;SDS011;26309;50.924;4.754;2023-05-07T03:48:33;19.50;;;14.60;;
40599;SDS011;26309;50.924;4.754;2023-05-07T03:51:00;16.35;;;14.40;;
40599;SDS011;26309;50.924;4.754;2023-05-07T03:53:26;18.25;;;16.38;;
40599;SDS011;26309;50.924;4.754;2023-05-07T03:55:51;17.55;;;15.65;;
40599;SDS011;26309;50.924;4.754;2023-05-07T03:58:17;18.08;;;15.98;;
40599;SDS011;26309;50.924;4.754;2023-05-07T04:00:43;18.73;;;15.38;;
40599;SDS011;26309;50.924;4.754;2023-05-07T04:03:09;19.27;;;16.85;;
40599;SDS011;26309;50.924;4.754;2023-05-07T04:05:35;18.13;;;16.23;;
40599;SDS011;26309;50.924;4.754;2023-05-07T04:08:01;19.00;;;15.75;;
40599;SDS011;26309;50.924;4.754;2023-05-07T04:10:29;17.17;;;15.13;;
40599;SDS011;26309;50.924;4.754;2023-05-07T04:12:56;19.55;;;13.88;;
40599;SDS011;26309;50.924;4.754;2023-05-07T04:15:23;16.33;;;14.63;;
40599;SDS011;26309;50.924;4.754;2023-05-07T04:17:49;16.15;;;14.40;;
40599;SDS011;26309;50.924;4.754;2023-05-07T04:20:15;15.57;;;12.75;;
40599;SDS011;26309;50.924;4.754;2023-05-07T04:22:43;17.02;;;12.93;;
40599;SDS011;26309;50.924;4.754;2023-05-07T04:25:09;14.40;;;13.00;;
40599;SDS011;26309;50.924;4.754;2023-05-07T04:27:35;13.05;;;11.75;;
40599;SDS011;26309;50.924;4.754;2023-05-07T04:30:02;17.65;;;12.85;;
40599;SDS011;26309;50.924;4.754;2023-05-07T04:32:29;15.82;;;13.45;;
40599;SDS011;26309;50.924;4.754;2023-05-07T04:34:58;13.48;;;12.18;;
40599;SDS011;26309;50.924;4.754;2023-05-07T04:37:25;15.55;;;13.93;;
40599;SDS011;26309;50.924;4.754;2023-05-07T04:39:51;15.00;;;13.48;;
40599;SDS011;26309;50.924;4.754;2023-05-07T04:42:17;14.77;;;13.25;;
40599;SDS011;26309;50.924;4.754;2023-05-07T04:44:44;16.50;;;14.02;;
40599;SDS011;26309;50.924;4.754;2023-05-07T04:47:11;15.35;;;13.93;;
40599;SDS011;26309;50.924;4.754;2023-05-07T04:49:37;16.23;;;13.13;;
40599;SDS011;26309;50.924;4.754;2023-05-07T04:52:03;15.73;;;14.07;;
40599;SDS011;26309;50.924;4.754;2023-05-07T04:54:30;16.42;;;14.40;;
40599;SDS011;26309;50.924;4.754;2023-05-07T04:56:55;16.15;;;13.95;;
40599;SDS011;26309;50.924;4.754;2023-05-07T04:59:21;15.30;;;13.73;;
40599;SDS011;26309;50.924;4.754;2023-05-07T05:01:47;15.65;;;14.10;;
40599;SDS011;26309;50.924;4.754;2023-05-07T05:04:13;16.20;;;14.50;;
40599;SDS011;26309;50.924;4.754;2023-05-07T05:06:39;15.65;;;13.93;;
40599;SDS011;26309;50.924;4.754;2023-05-07T05:09:06;15.70;;;13.05;;
40599;SDS011;26309;50.924;4.754;2023-05-07T05:11:32;15.23;;;12.95;;
40599;SDS011;26309;50.924;4.754;2023-05-07T05:13:59;15.10;;;13.13;;
40599;SDS011;26309;50.924;4.754;2023-05-07T05:16:25;15.13;;;12.48;;
40599;SDS011;26309;50.924;4.754;2023-05-07T05:18:51;14.88;;;13.05;;
40599;SDS011;26309;50.924;4.754;2023-05-07T05:21:19;17.55;;;13.43;;
40599;SDS011;26309;50.924;4.754;2023-05-07T05:23:45;15.10;;;12.35;;
40599;SDS011;26309;50.924;4.754;2023-05-07T05:26:11;16.20;;;14.35;;
40599;SDS011;26309;50.924;4.754;2023-05-07T05:28:37;14.98;;;13.23;;
40599;SDS011;26309;50.924;4.754;2023-05-07T05:31:04;15.27;;;13.77;;
40599;SDS011;26309;50.924;4.754;2023-05-07T05:33:30;19.55;;;14.52;;
40599;SDS011;26309;50.924;4.754;2023-05-07T05:35:55;16.52;;;14.57;;
40599;SDS011;26309;50.924;4.754;2023-05-07T05:38:21;17.98;;;14.70;;
40599;SDS011;26309;50.924;4.754;2023-05-07T05:40:47;15.93;;;13.57;;
40599;SDS011;26309;50.924;4.754;2023-05-07T05:43:13;15.70;;;14.13;;
40599;SDS011;26309;50.924;4.754;2023-05-07T05:45:39;15.63;;;13.95;;
40599;SDS011;26309;50.924;4.754;2023-05-07T05:48:05;17.52;;;14.50;;
40599;SDS011;26309;50.924;4.754;2023-05-07T05:50:31;19.90;;;14.00;;
40599;SDS011;26309;50.924;4.754;2023-05-07T05:52:57;16.35;;;14.30;;
40599;SDS011;26309;50.924;4.754;2023-05-07T05:55:23;16.60;;;14.85;;
40599;SDS011;26309;50.924;4.754;2023-05-07T05:57:49;20.85;;;15.63;;
40599;SDS011;26309;50.924;4.754;2023-05-07T06:00:15;19.67;;;15.27;;
40599;SDS011;26309;50.924;4.754;2023-05-07T06:02:42;17.48;;;15.63;;
40599;SDS011;26309;50.924;4.754;2023-05-07T06:05:08;17.77;;;15.80;;
40599;SDS011;26309;50.924;4.754;2023-05-07T06:07:34;18.63;;;15.77;;
40599;SDS011;26309;50.924;4.754;2023-05-07T06:10:01;17.98;;;15.90;;
40599;SDS011;26309;50.924;4.754;2023-05-07T06:12:26;19.25;;;15.40;;
40599;SDS011;26309;50.924;4.754;2023-05-07T06:14:52;17.40;;;15.48;;
40599;SDS011;26309;50.924;4.754;2023-05-07T06:17:18;15.57;;;13.88;;
40599;SDS011;26309;50.924;4.754;2023-05-07T06:19:44;15.88;;;13.93;;
40599;SDS011;26309;50.924;4.754;2023-05-07T06:22:10;16.48;;;14.63;;
40599;SDS011;26309;50.924;4.754;2023-05-07T06:24:36;16.38;;;14.27;;
40599;SDS011;26309;50.924;4.754;2023-05-07T06:27:01;15.95;;;13.88;;
40599;SDS011;26309;50.924;4.754;2023-05-07T06:29:27;15.85;;;13.73;;
40599;SDS011;26309;50.924;4.754;2023-05-07T06:31:55;15.32;;;12.98;;
40599;SDS011;26309;50.924;4.754;2023-05-07T06:34:21;16.75;;;14.05;;
40599;SDS011;26309;50.924;4.754;2023-05-07T06:36:47;18.85;;;13.77;;
40599;SDS011;26309;50.924;4.754;2023-05-07T06:39:13;15.65;;;13.70;;
40599;SDS011;26309;50.924;4.754;2023-05-07T06:41:39;14.60;;;12.32;;
40599;SDS011;26309;50.924;4.754;2023-05-07T06:44:05;13.27;;;11.98;;
40599;SDS011;26309;50.924;4.754;2023-05-07T06:46:31;14.82;;;11.63;;
40599;SDS011;26309;50.924;4.754;2023-05-07T06:48:57;13.95;;;11.63;;
40599;SDS011;26309;50.924;4.754;2023-05-07T06:51:23;14.80;;;12.10;;
40599;SDS011;26309;50.924;4.754;2023-05-07T06:53:49;16.20;;;11.60;;
40599;SDS011;26309;50.924;4.754;2023-05-07T06:56:15;17.30;;;11.45;;
40599;SDS011;26309;50.924;4.754;2023-05-07T06:58:41;13.45;;;10.68;;
40599;SDS011;26309;50.924;4.754;2023-05-07T07:01:07;14.30;;;11.43;;
40599;SDS011;26309;50.924;4.754;2023-05-07T07:03:32;15.32;;;10.32;;
40599;SDS011;26309;50.924;4.754;2023-05-07T07:05:58;13.23;;;9.63;;
40599;SDS011;26309;50.924;4.754;2023-05-07T07:08:24;15.45;;;8.98;;
40599;SDS011;26309;50.924;4.754;2023-05-07T07:10:50;15.65;;;9.13;;
40599;SDS011;26309;50.924;4.754;2023-05-07T07:13:16;13.35;;;8.88;;
40599;SDS011;26309;50.924;4.754;2023-05-07T07:15:43;11.82;;;8.38;;
40599;SDS011;26309;50.924;4.754;2023-05-07T07:18:08;15.70;;;8.35;;
40599;SDS011;26309;50.924;4.754;2023-05-07T07:20:34;12.63;;;8.25;;
40599;SDS011;26309;50.924;4.754;2023-05-07T07:23:00;11.73;;;7.43;;
40599;SDS011;26309;50.924;4.754;2023-05-07T07:25:26;13.10;;;7.10;;
40599;SDS011;26309;50.924;4.754;2023-05-07T07:27:52;10.35;;;7.18;;
40599;SDS011;26309;50.924;4.754;2023-05-07T07:30:18;12.77;;;6.95;;
40599;SDS011;26309;50.924;4.754;2023-05-07T07:32:43;16.80;;;7.13;;
40599;SDS011;26309;50.924;4.754;2023-05-07T07:35:09;12.50;;;6.72;;
40599;SDS011;26309;50.924;4.754;2023-05-07T07:37:35;8.25;;;6.38;;
40599;SDS011;26309;50.924;4.754;2023-05-07T07:40:01;10.95;;;5.93;;
40599;SDS011;26309;50.924;4.754;2023-05-07T07:42:28;13.45;;;6.25;;
40599;SDS011;26309;50.924;4.754;2023-05-07T07:44:54;10.32;;;6.07;;
40599;SDS011;26309;50.924;4.754;2023-05-07T07:47:23;12.25;;;6.45;;
40599;SDS011;26309;50.924;4.754;2023-05-07T07:49:49;12.65;;;6.10;;
40599;SDS011;26309;50.924;4.754;2023-05-07T07:52:15;14.15;;;6.68;;
40599;SDS011;26309;50.924;4.754;2023-05-07T07:54:40;12.48;;;6.07;;
40599;SDS011;26309;50.924;4.754;2023-05-07T07:57:06;11.05;;;6.68;;
40599;SDS011;26309;50.924;4.754;2023-05-07T07:59:32;10.32;;;6.28;;
40599;SDS011;26309;50.924;4.754;2023-05-07T08:01:58;11.43;;;6.43;;
40599;SDS011;26309;50.924;4.754;2023-05-07T08:04:24;11.27;;;6.50;;
40599;SDS011;26309;50.924;4.754;2023-05-07T08:06:49;14.82;;;6.47;;
40599;SDS011;26309;50.924;4.754;2023-05-07T08:09:15;13.10;;;6.38;;
40599;SDS011;26309;50.924;4.754;2023-05-07T08:11:41;16.85;;;7.40;;
40599;SDS011;26309;50.924;4.754;2023-05-07T08:14:07;14.10;;;6.85;;
40599;SDS011;26309;50.924;4.754;2023-05-07T08:16:33;12.52;;;6.05;;
40599;SDS011;26309;50.924;4.754;2023-05-07T08:18:59;12.75;;;6.60;;
40599;SDS011;26309;50.924;4.754;2023-05-07T08:21:25;12.88;;;6.75;;
40599;SDS011;26309;50.924;4.754;2023-05-07T08:23:51;14.68;;;7.20;;
40599;SDS011;26309;50.924;4.754;2023-05-07T08:26:17;8.68;;;6.45;;
40599;SDS011;26309;50.924;4.754;2023-05-07T08:28:42;14.52;;;6.70;;
40599;SDS011;26309;50.924;4.754;2023-05-07T08:31:08;13.57;;;6.30;;
40599;SDS011;26309;50.924;4.754;2023-05-07T08:33:34;11.00;;;5.80;;
40599;SDS011;26309;50.924;4.754;2023-05-07T08:36:00;11.38;;;5.47;;
40599;SDS011;26309;50.924;4.754;2023-05-07T08:38:26;12.05;;;5.80;;
40599;SDS011;26309;50.924;4.754;2023-05-07T08:40:51;13.43;;;5.80;;
40599;SDS011;26309;50.924;4.754;2023-05-07T08:43:17;14.77;;;5.18;;
40599;SDS011;26309;50.924;4.754;2023-05-07T08:45:45;9.75;;;5.25;;
40599;SDS011;26309;50.924;4.754;2023-05-07T08:48:15;7.97;;;5.03;;
40599;SDS011;26309;50.924;4.754;2023-05-07T08:50:42;9.05;;;4.85;;
40599;SDS011;26309;50.924;4.754;2023-05-07T08:53:08;11.57;;;5.45;;
40599;SDS011;26309;50.924;4.754;2023-05-07T08:55:34;11.98;;;5.45;;
40599;SDS011;26309;50.924;4.754;2023-05-07T08:58:03;13.75;;;5.22;;
40599;SDS011;26309;50.924;4.754;2023-05-07T09:00:29;10.77;;;5.47;;
40599;SDS011;26309;50.924;4.754;2023-05-07T09:02:55;10.30;;;4.50;;
40599;SDS011;26309;50.924;4.754;2023-05-07T09:05:21;10.43;;;4.85;;
40599;SDS011;26309;50.924;4.754;2023-05-07T09:07:47;11.23;;;5.32;;
40599;SDS011;26309;50.924;4.754;2023-05-07T09:10:13;10.75;;;4.93;;
40599;SDS011;26309;50.924;4.754;2023-05-07T09:12:39;11.73;;;5.00;;
40599;SDS011;26309;50.924;4.754;2023-05-07T09:15:05;8.70;;;4.68;;
40599;SDS011;26309;50.924;4.754;2023-05-07T09:17:31;8.75;;;4.40;;
40599;SDS011;26309;50.924;4.754;2023-05-07T09:20:04;7.25;;;4.53;;
40599;SDS011;26309;50.924;4.754;2023-05-07T09:22:33;11.27;;;4.70;;
40599;SDS011;26309;50.924;4.754;2023-05-07T09:24:59;12.35;;;4.63;;
40599;SDS011;26309;50.924;4.754;2023-05-07T09:27:25;11.00;;;4.72;;
40599;SDS011;26309;50.924;4.754;2023-05-07T09:29:51;9.07;;;4.57;;
40599;SDS011;26309;50.924;4.754;2023-05-07T09:32:17;9.40;;;4.90;;
40599;SDS011;26309;50.924;4.754;2023-05-07T09:34:43;7.93;;;4.20;;
40599;SDS011;26309;50.924;4.754;2023-05-07T09:37:09;9.55;;;4.35;;
40599;SDS011;26309;50.924;4.754;2023-05-07T09:39:39;9.30;;;4.13;;
40599;SDS011;26309;50.924;4.754;2023-05-07T09:42:06;9.52;;;3.80;;
40599;SDS011;26309;50.924;4.754;2023-05-07T09:44:32;12.50;;;4.35;;
40599;SDS011;26309;50.924;4.754;2023-05-07T09:46:59;9.60;;;4.40;;
40599;SDS011;26309;50.924;4.754;2023-05-07T09:49:28;8.18;;;3.97;;
40599;SDS011;26309;50.924;4.754;2023-05-07T09:51:55;6.93;;;3.50;;
40599;SDS011;26309;50.924;4.754;2023-05-07T09:54:22;11.20;;;4.22;;
40599;SDS011;26309;50.924;4.754;2023-05-07T09:56:48;8.98;;;4.30;;
40599;SDS011;26309;50.924;4.754;2023-05-07T09:59:14;8.05;;;3.65;;
40599;SDS011;26309;50.924;4.754;2023-05-07T10:01:42;9.88;;;4.10;;
40599;SDS011;26309;50.924;4.754;2023-05-07T10:04:09;10.68;;;4.32;;
40599;SDS011;26309;50.924;4.754;2023-05-07T10:06:35;12.25;;;4.43;;
40599;SDS011;26309;50.924;4.754;2023-05-07T10:09:06;8.88;;;4.18;;
40599;SDS011;26309;50.924;4.754;2023-05-07T10:11:34;7.90;;;4.00;;
40599;SDS011;26309;50.924;4.754;2023-05-07T10:14:01;5.88;;;3.60;;
40599;SDS011;26309;50.924;4.754;2023-05-07T10:16:29;6.15;;;3.97;;
40599;SDS011;26309;50.924;4.754;2023-05-07T10:19:04;10.45;;;4.30;;
40599;SDS011;26309;50.924;4.754;2023-05-07T10:21:31;7.65;;;4.25;;
40599;SDS011;26309;50.924;4.754;2023-05-07T10:24:12;6.63;;;4.00;;
40599;SDS011;26309;50.924;4.754;2023-05-07T10:27:00;7.65;;;3.50;;
40599;SDS011;26309;50.924;4.754;2023-05-07T10:34:55;8.07;;;4.65;;
40599;SDS011;26309;50.924;4.754;2023-05-07T10:37:23;11.50;;;4.85;;
40599;SDS011;26309;50.924;4.754;2023-05-07T10:39:50;5.72;;;4.82;;
40599;SDS011;26309;50.924;4.754;2023-05-07T10:42:17;13.15;;;5.45;;
40599;SDS011;26309;50.924;4.754;2023-05-07T10:44:43;9.88;;;5.40;;
40599;SDS011;26309;50.924;4.754;2023-05-07T10:47:13;8.15;;;5.30;;
40599;SDS011;26309;50.924;4.754;2023-05-07T10:54:43;7.75;;;4.57;;
40599;SDS011;26309;50.924;4.754;2023-05-07T11:00:00;7.40;;;3.85;;
40599;SDS011;26309;50.924;4.754;2023-05-07T11:05:29;6.93;;;3.90;;
40599;SDS011;26309;50.924;4.754;2023-05-07T11:07:56;10.18;;;3.45;;
40599;SDS011;26309;50.924;4.754;2023-05-07T11:10:39;6.05;;;3.05;;
40599;SDS011;26309;50.924;4.754;2023-05-07T11:13:12;7.40;;;3.00;;
40599;SDS011;26309;50.924;4.754;2023-05-07T11:15:40;7.82;;;3.05;;
40599;SDS011;26309;50.924;4.754;2023-05-07T11:18:08;5.50;;;2.50;;
40599;SDS011;26309;50.924;4.754;2023-05-07T11:20:54;9.60;;;2.67;;
40599;SDS011;26309;50.924;4.754;2023-05-07T11:26:06;7.15;;;3.28;;
40599;SDS011;26309;50.924;4.754;2023-05-07T11:28:40;5.75;;;3.03;;
40599;SDS011;26309;50.924;4.754;2023-05-07T11:31:07;4.53;;;3.15;;
40599;SDS011;26309;50.924;4.754;2023-05-07T11:33:34;8.98;;;3.58;;
40599;SDS011;26309;50.924;4.754;2023-05-07T11:36:01;7.63;;;3.38;;
40599;SDS011;26309;50.924;4.754;2023-05-07T11:38:36;8.90;;;3.60;;
40599;SDS011;26309;50.924;4.754;2023-05-07T11:41:03;8.00;;;3.20;;
40599;SDS011;26309;50.924;4.754;2023-05-07T11:43:33;8.40;;;3.10;;
40599;SDS011;26309;50.924;4.754;2023-05-07T11:48:33;7.90;;;3.17;;
40599;SDS011;26309;50.924;4.754;2023-05-07T11:51:04;9.75;;;3.45;;
40599;SDS011;26309;50.924;4.754;2023-05-07T11:53:37;10.75;;;3.85;;
40599;SDS011;26309;50.924;4.754;2023-05-07T11:56:07;8.45;;;3.63;;
40599;SDS011;26309;50.924;4.754;2023-05-07T11:58:34;4.90;;;2.60;;
40599;SDS011;26309;50.924;4.754;2023-05-07T12:01:01;7.05;;;3.40;;
40599;SDS011;26309;50.924;4.754;2023-05-07T12:03:27;7.78;;;3.17;;
40599;SDS011;26309;50.924;4.754;2023-05-07T12:05:53;8.32;;;3.22;;
40599;SDS011;26309;50.924;4.754;2023-05-07T12:08:20;7.70;;;3.40;;
40599;SDS011;26309;50.924;4.754;2023-05-07T12:10:48;7.47;;;3.25;;
40599;SDS011;26309;50.924;4.754;2023-05-07T12:13:15;7.18;;;3.70;;
40599;SDS011;26309;50.924;4.754;2023-05-07T12:15:42;6.28;;;3.38;;
40599;SDS011;26309;50.924;4.754;2023-05-07T12:18:08;8.85;;;4.13;;
40599;SDS011;26309;50.924;4.754;2023-05-07T12:20:36;4.82;;;2.45;;
40599;SDS011;26309;50.924;4.754;2023-05-07T12:23:02;7.00;;;2.10;;
40599;SDS011;26309;50.924;4.754;2023-05-07T12:25:31;10.50;;;2.95;;
40599;SDS011;26309;50.924;4.754;2023-05-07T12:28:05;6.35;;;2.95;;
40599;SDS011;26309;50.924;4.754;2023-05-07T12:30:38;5.85;;;2.70;;
40599;SDS011;26309;50.924;4.754;2023-05-07T12:33:05;7.05;;;2.75;;
40599;SDS011;26309;50.924;4.754;2023-05-07T12:35:32;6.43;;;2.30;;
40599;SDS011;26309;50.924;4.754;2023-05-07T12:38:01;8.65;;;2.90;;
40599;SDS011;26309;50.924;4.754;2023-05-07T12:40:43;7.25;;;2.70;;
40599;SDS011;26309;50.924;4.754;2023-05-07T12:45:54;6.15;;;2.53;;
40599;SDS011;26309;50.924;4.754;2023-05-07T12:48:27;7.22;;;2.70;;
40599;SDS011;26309;50.924;4.754;2023-05-07T12:50:53;6.07;;;2.95;;
40599;SDS011;26309;50.924;4.754;2023-05-07T12:53:21;5.90;;;2.65;;
40599;SDS011;26309;50.924;4.754;2023-05-07T12:55:49;7.35;;;2.95;;
40599;SDS011;26309;50.924;4.754;2023-05-07T12:58:18;8.05;;;2.75;;
40599;SDS011;26309;50.924;4.754;2023-05-07T13:00:46;9.85;;;2.95;;
40599;SDS011;26309;50.924;4.754;2023-05-07T13:03:20;8.10;;;2.83;;
40599;SDS011;26309;50.924;4.754;2023-05-07T13:05:49;7.00;;;2.83;;
40599;SDS011;26309;50.924;4.754;2023-05-07T13:08:29;8.13;;;2.90;;
40599;SDS011;26309;50.924;4.754;2023-05-07T13:10:59;4.50;;;2.40;;
40599;SDS011;26309;50.924;4.754;2023-05-07T13:14:11;7.25;;;2.92;;
40599;SDS011;26309;50.924;4.754;2023-05-07T13:16:18;5.60;;;2.97;;
40599;SDS011;26309;50.924;4.754;2023-05-07T13:18:44;7.72;;;3.00;;
40599;SDS011;26309;50.924;4.754;2023-05-07T13:21:10;7.70;;;2.63;;
40599;SDS011;26309;50.924;4.754;2023-05-07T13:23:38;6.60;;;2.30;;
40599;SDS011;26309;50.924;4.754;2023-05-07T13:26:04;4.97;;;2.50;;
40599;SDS011;26309;50.924;4.754;2023-05-07T13:28:30;5.47;;;2.42;;
40599;SDS011;26309;50.924;4.754;2023-05-07T13:30:58;6.18;;;2.05;;
40599;SDS011;26309;50.924;4.754;2023-05-07T13:33:24;5.63;;;2.63;;
40599;SDS011;26309;50.924;4.754;2023-05-07T13:35:50;4.70;;;2.13;;
40599;SDS011;26309;50.924;4.754;2023-05-07T13:38:16;3.72;;;2.20;;
40599;SDS011;26309;50.924;4.754;2023-05-07T13:40:43;4.78;;;1.83;;
40599;SDS011;26309;50.924;4.754;2023-05-07T13:43:08;5.10;;;2.05;;
40599;SDS011;26309;50.924;4.754;2023-05-07T13:45:35;7.45;;;2.35;;
40599;SDS011;26309;50.924;4.754;2023-05-07T13:48:01;4.93;;;2.30;;
40599;SDS011;26309;50.924;4.754;2023-05-07T13:50:27;4.93;;;2.15;;
40599;SDS011;26309;50.924;4.754;2023-05-07T13:52:55;4.68;;;2.35;;
40599;SDS011;26309;50.924;4.754;2023-05-07T13:55:21;3.58;;;2.00;;
40599;SDS011;26309;50.924;4.754;2023-05-07T13:57:54;7.97;;;1.98;;
40599;SDS011;26309;50.924;4.754;2023-05-07T14:00:22;4.20;;;2.30;;
40599;SDS011;26309;50.924;4.754;2023-05-07T14:02:51;6.53;;;2.50;;
40599;SDS011;26309;50.924;4.754;2023-05-07T14:05:18;6.85;;;2.55;;
40599;SDS011;26309;50.924;4.754;2023-05-07T14:07:44;6.05;;;2.40;;
40599;SDS011;26309;50.924;4.754;2023-05-07T14:10:10;4.75;;;2.50;;
40599;SDS011;26309;50.924;4.754;2023-05-07T14:12:36;3.80;;;2.08;;
40599;SDS011;26309;50.924;4.754;2023-05-07T14:15:02;7.57;;;2.65;;
40599;SDS011;26309;50.924;4.754;2023-05-07T14:17:28;4.78;;;2.50;;
40599;SDS011;26309;50.924;4.754;2023-05-07T14:19:54;4.90;;;2.30;;
40599;SDS011;26309;50.924;4.754;2023-05-07T14:22:21;5.07;;;2.35;;
40599;SDS011;26309;50.924;4.754;2023-05-07T14:24:48;3.92;;;2.38;;
40599;SDS011;26309;50.924;4.754;2023-05-07T14:27:15;5.25;;;2.40;;
40599;SDS011;26309;50.924;4.754;2023-05-07T14:29:41;4.25;;;2.20;;
40599;SDS011;26309;50.924;4.754;2023-05-07T14:32:08;4.35;;;2.08;;
40599;SDS011;26309;50.924;4.754;2023-05-07T14:34:34;4.97;;;2.30;;
40599;SDS011;26309;50.924;4.754;2023-05-07T14:37:00;8.50;;;2.47;;
40599;SDS011;26309;50.924;4.754;2023-05-07T14:39:26;7.45;;;2.55;;
40599;SDS011;26309;50.924;4.754;2023-05-07T14:41:52;4.43;;;2.42;;
40599;SDS011;26309;50.924;4.754;2023-05-07T14:44:20;4.78;;;2.40;;
40599;SDS011;26309;50.924;4.754;2023-05-07T14:46:46;6.05;;;2.47;;
40599;SDS011;26309;50.924;4.754;2023-05-07T14:49:12;4.55;;;2.35;;
40599;SDS011;26309;50.924;4.754;2023-05-07T14:51:43;5.13;;;2.83;;
40599;SDS011;26309;50.924;4.754;2023-05-07T14:54:10;7.47;;;2.60;;
40599;SDS011;26309;50.924;4.754;2023-05-07T14:56:36;5.05;;;2.83;;
40599;SDS011;26309;50.924;4.754;2023-05-07T14:59:02;5.18;;;2.63;;